Time;durP1;ratioP1;P1;durP2;ratioP2;P2;SDS_P1;SDS_P2;PMS_P1;PMS_P2;Temp;Humidity;BMP_temperature;BMP_pressure;BME280_temperature;BME280_humidity;BME280_pressure;Samples;Min_cycle;Max_cycle;Signal;HPM_P1;HPM_P2
2022/03/11 00:01:42;;;;;;;19.63;11.52;;;4.90;99.90;;;;;;5113956;27;20050;-66
2022/03/11 00:04:08;;;;;;;21.67;11.85;;;4.90;99.90;;;;;;5112812;27;20405;-66
2022/03/11 00:06:35;;;;;;;20.45;12.00;;;4.90;99.90;;;;;;5134222;27;20043;-65
2022/03/11 00:09:01;;;;;;;19.90;11.85;;;4.90;99.90;;;;;;5114585;27;20050;-66
2022/03/11 00:11:27;;;;;;;21.55;11.85;;;4.80;99.90;;;;;;5128896;27;20036;-65
2022/03/11 00:13:52;;;;;;;20.85;11.25;;;4.80;99.90;;;;;;5114513;27;20050;-66
2022/03/11 00:16:19;;;;;;;22.05;11.55;;;4.80;99.90;;;;;;5108603;27;20067;-66
2022/03/11 00:18:45;;;;;;;21.50;11.40;;;4.80;99.90;;;;;;5114653;27;20054;-65
2022/03/11 00:21:12;;;;;;;20.80;11.75;;;4.80;99.90;;;;;;5131033;27;20027;-66
2022/03/11 00:23:39;;;;;;;24.23;12.02;;;4.70;99.90;;;;;;5115562;27;20110;-65
2022/03/11 00:26:05;;;;;;;24.35;12.20;;;4.70;99.90;;;;;;5112006;28;20031;-65
2022/03/11 00:28:30;;;;;;;23.10;11.77;;;4.70;99.90;;;;;;5111220;27;20058;-65
2022/03/11 00:30:56;;;;;;;19.73;11.50;;;4.70;99.90;;;;;;5114657;27;20087;-65
2022/03/11 00:33:22;;;;;;;21.58;11.95;;;4.70;99.90;;;;;;5115189;27;20122;-66
2022/03/11 00:35:48;;;;;;;22.98;11.38;;;4.70;99.90;;;;;;5114744;27;20042;-66
2022/03/11 00:38:13;;;;;;;21.88;12.15;;;4.60;99.90;;;;;;5115320;27;20112;-65
2022/03/11 00:40:39;;;;;;;20.35;11.30;;;4.60;99.90;;;;;;5114826;27;20096;-65
2022/03/11 00:43:04;;;;;;;19.33;11.52;;;4.60;99.90;;;;;;5122816;27;20103;-65
2022/03/11 00:45:30;;;;;;;19.48;11.45;;;4.60;99.90;;;;;;5115014;27;20495;-65
2022/03/11 00:47:55;;;;;;;22.58;12.52;;;4.60;99.90;;;;;;5115167;27;20489;-66
2022/03/11 00:50:22;;;;;;;22.05;11.05;;;4.60;99.90;;;;;;5114378;27;20047;-65
2022/03/11 00:52:47;;;;;;;22.75;11.70;;;4.60;99.90;;;;;;5133802;27;20035;-66
2022/03/11 00:55:13;;;;;;;21.95;11.27;;;4.60;99.90;;;;;;5113224;27;20092;-66
2022/03/11 00:57:38;;;;;;;18.80;10.80;;;4.60;99.90;;;;;;5104838;28;20497;-66
2022/03/11 01:00:05;;;;;;;21.48;11.60;;;4.60;99.90;;;;;;5108715;27;20027;-66
2022/03/11 01:02:41;;;;;;;19.88;11.50;;;4.60;99.90;;;;;;5114402;27;20092;-65
2022/03/11 01:05:08;;;;;;;19.30;10.95;;;4.50;99.90;;;;;;5114074;27;20058;-65
2022/03/11 01:07:34;;;;;;;23.30;11.70;;;4.50;99.90;;;;;;5118095;27;20077;-65
2022/03/11 01:10:00;;;;;;;20.02;10.95;;;4.40;99.90;;;;;;5112759;27;20092;-65
2022/03/11 01:12:26;;;;;;;18.83;10.93;;;4.40;99.90;;;;;;5109810;27;20027;-65
2022/03/11 01:14:52;;;;;;;21.08;10.55;;;4.30;99.90;;;;;;5113556;27;20318;-66
2022/03/11 01:17:17;;;;;;;20.80;11.00;;;4.30;99.90;;;;;;5114635;27;20059;-65
2022/03/11 01:19:43;;;;;;;18.67;10.88;;;4.30;99.90;;;;;;5110535;27;20043;-66
2022/03/11 01:22:09;;;;;;;22.23;11.02;;;4.30;99.90;;;;;;5113890;27;20035;-65
2022/03/11 01:24:34;;;;;;;19.23;10.68;;;4.30;99.90;;;;;;5111632;27;20081;-66
2022/03/11 01:27:00;;;;;;;19.48;10.95;;;4.30;99.90;;;;;;5112751;27;20047;-66
2022/03/11 01:29:25;;;;;;;18.58;10.75;;;4.30;99.90;;;;;;5113456;27;20545;-65
2022/03/11 01:31:52;;;;;;;20.63;11.75;;;4.30;99.90;;;;;;5113669;27;20046;-65
2022/03/11 01:34:18;;;;;;;20.02;10.38;;;4.20;99.90;;;;;;5113916;27;20121;-65
2022/03/11 01:36:43;;;;;;;17.92;10.30;;;4.20;99.90;;;;;;5104957;27;20184;-65
2022/03/11 01:39:09;;;;;;;22.02;10.90;;;4.10;99.90;;;;;;5111439;27;20047;-65
2022/03/11 01:41:35;;;;;;;20.65;10.43;;;4.10;99.90;;;;;;5113712;27;20046;-64
2022/03/11 01:44:09;;;;;;;20.08;10.55;;;4.10;99.90;;;;;;5113454;27;20031;-66
2022/03/11 01:46:35;;;;;;;18.88;11.27;;;4.00;99.90;;;;;;5114025;27;20039;-65
2022/03/11 01:49:03;;;;;;;19.63;10.73;;;4.00;99.90;;;;;;5112724;27;20088;-66
2022/03/11 01:51:32;;;;;;;21.98;11.23;;;4.00;99.90;;;;;;5121781;27;20309;-65
2022/03/11 01:53:58;;;;;;;19.98;11.25;;;4.00;99.90;;;;;;5112908;27;20054;-65
2022/03/11 01:56:24;;;;;;;23.15;11.38;;;3.90;99.90;;;;;;5114276;27;20038;-65
2022/03/11 01:58:52;;;;;;;20.77;11.85;;;3.90;99.90;;;;;;5110241;27;20048;-65
2022/03/11 02:01:18;;;;;;;21.20;11.55;;;3.80;99.90;;;;;;5105774;27;20447;-65
2022/03/11 02:03:44;;;;;;;22.88;12.63;;;3.80;99.90;;;;;;5104192;27;20049;-65
2022/03/11 02:06:13;;;;;;;23.55;11.82;;;3.80;99.90;;;;;;5113284;27;20393;-65
2022/03/11 02:08:39;;;;;;;23.98;12.30;;;3.80;99.90;;;;;;5127000;27;20079;-65
2022/03/11 02:11:06;;;;;;;22.92;11.77;;;3.70;99.90;;;;;;5104921;27;20047;-66
2022/03/11 02:13:48;;;;;;;21.02;12.30;;;3.70;99.90;;;;;;5113630;27;20051;-65
2022/03/11 02:16:16;;;;;;;22.90;11.75;;;3.70;99.90;;;;;;5102979;27;20153;-65
2022/03/11 02:18:41;;;;;;;20.30;11.77;;;3.60;99.90;;;;;;5111499;27;20039;-65
2022/03/11 02:21:09;;;;;;;21.70;12.32;;;3.60;99.90;;;;;;5114105;27;20354;-65
2022/03/11 02:23:45;;;;;;;21.45;11.63;;;3.60;99.90;;;;;;5095507;27;20493;-65
2022/03/11 02:26:11;;;;;;;23.92;12.45;;;3.60;99.90;;;;;;5113730;27;20066;-65
2022/03/11 02:28:36;;;;;;;24.63;12.38;;;3.60;99.90;;;;;;5109344;27;20482;-66
2022/03/11 02:31:02;;;;;;;23.25;11.90;;;3.50;99.90;;;;;;5112268;28;20309;-66
2022/03/11 02:33:28;;;;;;;21.92;11.93;;;3.50;99.90;;;;;;5112485;28;20043;-66
2022/03/11 02:35:54;;;;;;;21.33;12.02;;;3.50;99.90;;;;;;5112838;28;20663;-65
2022/03/11 02:38:20;;;;;;;21.55;11.68;;;3.50;99.90;;;;;;5107725;28;20046;-66
2022/03/11 02:40:45;;;;;;;25.08;12.18;;;3.60;99.90;;;;;;5106481;28;20031;-65
2022/03/11 02:43:11;;;;;;;23.40;11.25;;;3.50;99.90;;;;;;5106613;27;20034;-66
2022/03/11 02:45:37;;;;;;;26.45;12.63;;;3.50;99.90;;;;;;5112252;28;20039;-66
2022/03/11 02:48:02;;;;;;;20.60;11.30;;;3.50;99.90;;;;;;5104950;28;20032;-65
2022/03/11 02:50:28;;;;;;;21.42;11.75;;;3.50;99.90;;;;;;5093754;28;20383;-66
2022/03/11 02:52:53;;;;;;;22.80;11.95;;;3.50;99.90;;;;;;5095155;28;20081;-66
2022/03/11 02:55:19;;;;;;;22.50;11.75;;;3.50;99.90;;;;;;5111747;28;20043;-65
2022/03/11 02:57:44;;;;;;;23.30;11.35;;;3.50;99.90;;;;;;5110986;28;20620;-64
2022/03/11 03:00:10;;;;;;;20.27;11.52;;;3.50;99.90;;;;;;5109120;27;20031;-66
2022/03/11 03:02:36;;;;;;;20.55;11.20;;;3.50;99.90;;;;;;5107070;28;20036;-66
2022/03/11 03:05:02;;;;;;;20.60;11.60;;;3.50;99.90;;;;;;5111522;28;20031;-65
2022/03/11 03:07:28;;;;;;;22.98;11.32;;;3.50;99.90;;;;;;5093703;28;20499;-65
2022/03/11 03:09:53;;;;;;;22.63;11.40;;;3.40;99.90;;;;;;5110542;28;20074;-64
2022/03/11 03:12:19;;;;;;;23.17;12.18;;;3.40;99.90;;;;;;5111666;28;20405;-65
2022/03/11 03:14:44;;;;;;;25.63;11.88;;;3.40;99.90;;;;;;5111520;28;20402;-66
2022/03/11 03:17:10;;;;;;;22.88;11.38;;;3.40;99.90;;;;;;5093989;28;20434;-66
2022/03/11 03:19:36;;;;;;;23.67;12.50;;;3.40;99.90;;;;;;5110567;28;20039;-64
2022/03/11 03:22:03;;;;;;;21.77;12.25;;;3.40;99.90;;;;;;5122947;27;20038;-65
2022/03/11 03:24:29;;;;;;;21.73;12.32;;;3.40;99.90;;;;;;5111833;28;20442;-65
2022/03/11 03:26:55;;;;;;;20.70;11.57;;;3.40;99.90;;;;;;5111742;28;20161;-65
2022/03/11 03:29:21;;;;;;;26.10;12.68;;;3.40;99.90;;;;;;5075753;28;1025448;-65
2022/03/11 03:31:47;;;;;;;22.63;12.38;;;3.40;99.90;;;;;;5111044;28;20055;-64
2022/03/11 03:34:13;;;;;;;27.00;12.68;;;3.40;99.90;;;;;;5112586;28;20537;-66
2022/03/11 03:36:38;;;;;;;23.67;13.02;;;3.40;99.90;;;;;;5112070;28;20051;-66
2022/03/11 03:39:04;;;;;;;23.52;12.82;;;3.40;99.90;;;;;;5111870;28;20082;-66
2022/03/11 03:41:29;;;;;;;25.75;12.45;;;3.30;99.90;;;;;;5111840;28;20448;-66
2022/03/11 03:43:55;;;;;;;25.60;12.93;;;3.40;99.90;;;;;;5103177;28;20044;-65
2022/03/11 03:46:20;;;;;;;24.42;12.23;;;3.30;99.90;;;;;;5130429;28;20098;-66
2022/03/11 03:48:46;;;;;;;26.23;13.32;;;3.30;99.90;;;;;;5104129;27;20039;-66
2022/03/11 03:51:11;;;;;;;22.90;12.52;;;3.30;99.90;;;;;;5089359;28;20161;-65
2022/03/11 03:53:37;;;;;;;27.25;13.23;;;3.30;99.90;;;;;;5112781;28;20043;-65
2022/03/11 03:56:03;;;;;;;23.80;13.30;;;3.30;99.90;;;;;;5104873;27;20181;-65
2022/03/11 03:58:28;;;;;;;23.60;12.40;;;3.30;99.90;;;;;;5096019;27;20052;-65
2022/03/11 04:00:54;;;;;;;30.13;12.75;;;3.20;99.90;;;;;;5110982;28;20232;-66
2022/03/11 04:03:19;;;;;;;23.27;12.55;;;3.30;99.90;;;;;;5112543;28;20134;-66
2022/03/11 04:05:45;;;;;;;26.80;13.25;;;3.30;99.90;;;;;;5104215;28;20488;-64
2022/03/11 04:08:10;;;;;;;24.98;13.02;;;3.20;99.90;;;;;;5108641;28;20626;-66
2022/03/11 04:10:36;;;;;;;27.38;12.85;;;3.30;99.90;;;;;;5109667;28;20045;-66
2022/03/11 04:13:02;;;;;;;25.30;12.18;;;3.20;99.90;;;;;;5110788;28;20043;-65
2022/03/11 04:15:28;;;;;;;27.00;13.30;;;3.30;99.90;;;;;;5111643;27;20039;-65
2022/03/11 04:17:53;;;;;;;24.73;13.75;;;3.30;99.90;;;;;;5109832;27;20055;-66
2022/03/11 04:20:19;;;;;;;26.55;13.45;;;3.20;99.90;;;;;;5103568;28;20031;-65
2022/03/11 04:22:45;;;;;;;25.02;12.77;;;3.20;99.90;;;;;;5111466;28;20397;-66
2022/03/11 04:25:12;;;;;;;28.65;13.88;;;3.20;99.90;;;;;;5110347;28;20031;-66
2022/03/11 04:27:38;;;;;;;24.50;13.35;;;3.20;99.90;;;;;;5109942;28;20039;-65
2022/03/11 04:30:04;;;;;;;27.73;13.82;;;3.20;99.90;;;;;;5114417;27;20142;-66
2022/03/11 04:32:30;;;;;;;26.02;13.25;;;3.20;99.90;;;;;;5115872;27;20412;-66
2022/03/11 04:34:55;;;;;;;27.02;14.05;;;3.10;99.90;;;;;;5115943;27;20141;-66
2022/03/11 04:37:21;;;;;;;29.77;14.10;;;3.10;99.90;;;;;;5113146;27;20034;-66
2022/03/11 04:39:46;;;;;;;27.23;13.75;;;3.10;99.90;;;;;;5114069;27;20071;-66
2022/03/11 04:42:12;;;;;;;26.10;13.75;;;3.10;99.90;;;;;;5113815;27;20499;-65
2022/03/11 04:44:38;;;;;;;29.73;14.55;;;3.10;99.90;;;;;;5098772;27;20096;-65
2022/03/11 04:47:04;;;;;;;25.30;13.57;;;3.10;99.90;;;;;;5115062;27;20069;-66
2022/03/11 04:49:30;;;;;;;23.80;13.55;;;3.10;99.90;;;;;;5114954;27;20058;-66
2022/03/11 04:51:56;;;;;;;25.30;13.23;;;3.00;99.90;;;;;;5110488;27;20069;-66
2022/03/11 04:54:21;;;;;;;27.63;14.02;;;3.00;99.90;;;;;;5115209;27;20070;-66
2022/03/11 04:56:47;;;;;;;25.23;13.68;;;3.00;99.90;;;;;;5114687;27;20039;-65
2022/03/11 04:59:13;;;;;;;25.98;14.05;;;3.00;99.90;;;;;;5113970;27;20043;-65
2022/03/11 05:01:38;;;;;;;27.80;14.07;;;3.00;99.90;;;;;;5114762;27;20036;-66
2022/03/11 05:04:04;;;;;;;28.80;14.10;;;2.90;99.90;;;;;;5114794;27;20035;-65
2022/03/11 05:06:29;;;;;;;26.98;14.05;;;3.00;99.90;;;;;;5102959;27;20069;-65
2022/03/11 05:08:55;;;;;;;28.60;13.95;;;2.90;99.90;;;;;;5103433;27;20050;-66
2022/03/11 05:11:21;;;;;;;28.10;14.57;;;2.90;99.90;;;;;;5114927;27;20043;-65
2022/03/11 05:13:46;;;;;;;27.33;14.73;;;2.90;99.90;;;;;;5101704;27;20664;-66
2022/03/11 05:16:12;;;;;;;26.70;14.48;;;2.90;99.90;;;;;;5113168;27;20508;-65
2022/03/11 05:18:37;;;;;;;27.15;14.68;;;2.90;99.90;;;;;;5132478;27;20059;-67
2022/03/11 05:21:03;;;;;;;30.45;14.80;;;2.90;99.90;;;;;;5114671;27;20106;-66
2022/03/11 05:23:29;;;;;;;27.75;14.77;;;2.90;99.90;;;;;;5097659;27;20612;-65
2022/03/11 05:25:54;;;;;;;29.23;14.68;;;2.80;99.90;;;;;;5133453;27;20066;-66
2022/03/11 05:28:20;;;;;;;26.73;14.13;;;2.80;99.90;;;;;;5103196;27;20039;-66
2022/03/11 05:30:45;;;;;;;27.95;14.82;;;2.80;99.90;;;;;;5106934;27;20180;-65
2022/03/11 05:33:11;;;;;;;28.92;14.63;;;2.80;99.90;;;;;;5114516;27;20039;-65
2022/03/11 05:35:36;;;;;;;27.75;14.65;;;2.70;99.90;;;;;;5113187;27;20039;-66
2022/03/11 05:38:02;;;;;;;29.25;14.90;;;2.70;99.90;;;;;;5113058;27;20046;-66
2022/03/11 05:40:27;;;;;;;29.23;14.88;;;2.70;99.90;;;;;;5102612;27;20050;-65
2022/03/11 05:42:53;;;;;;;29.98;15.00;;;2.70;99.90;;;;;;5109714;28;20032;-66
2022/03/11 05:45:19;;;;;;;31.58;15.32;;;2.70;99.90;;;;;;5108692;27;20069;-66
2022/03/11 05:47:44;;;;;;;27.67;14.98;;;2.60;99.90;;;;;;5114039;27;20037;-65
2022/03/11 05:50:10;;;;;;;29.60;15.82;;;2.60;99.90;;;;;;5111281;27;20057;-65
2022/03/11 05:52:41;;;;;;;28.35;14.77;;;2.60;99.90;;;;;;5111937;27;20046;-65
2022/03/11 05:55:07;;;;;;;29.60;15.38;;;2.60;99.90;;;;;;5113855;27;20058;-65
2022/03/11 05:57:33;;;;;;;30.83;15.45;;;2.60;99.90;;;;;;5112347;27;20047;-65
2022/03/11 05:59:58;;;;;;;31.63;15.35;;;2.50;99.90;;;;;;5113574;27;20071;-65
2022/03/11 06:02:24;;;;;;;34.08;15.90;;;2.50;99.90;;;;;;5108412;27;20036;-65
2022/03/11 06:04:50;;;;;;;33.38;15.90;;;2.50;99.90;;;;;;5132627;27;20076;-65
2022/03/11 06:07:15;;;;;;;29.92;15.25;;;2.50;99.90;;;;;;5113640;27;20062;-66
2022/03/11 06:09:41;;;;;;;30.10;16.08;;;2.50;99.90;;;;;;5113601;27;20074;-65
2022/03/11 06:12:07;;;;;;;33.53;16.25;;;2.40;99.90;;;;;;5113710;27;20043;-65
2022/03/11 06:14:33;;;;;;;31.92;16.27;;;2.40;99.90;;;;;;5113729;27;20409;-65
2022/03/11 06:16:58;;;;;;;31.42;16.05;;;2.40;99.90;;;;;;5113490;27;20043;-66
2022/03/11 06:19:24;;;;;;;30.70;16.13;;;2.40;99.90;;;;;;5109392;27;20074;-65
2022/03/11 06:21:49;;;;;;;35.38;15.82;;;2.50;99.90;;;;;;5113517;27;20454;-64
2022/03/11 06:24:15;;;;;;;33.90;16.17;;;2.40;99.90;;;;;;5131581;27;20058;-65
2022/03/11 06:26:41;;;;;;;36.50;16.33;;;2.50;99.90;;;;;;5112655;27;20043;-66
2022/03/11 06:29:07;;;;;;;33.88;16.00;;;2.50;99.90;;;;;;5112984;27;20039;-65
2022/03/11 06:31:33;;;;;;;32.95;16.60;;;2.50;99.90;;;;;;5110926;27;20433;-65
2022/03/11 06:33:59;;;;;;;35.67;17.05;;;2.50;99.90;;;;;;5106194;27;20148;-65
2022/03/11 06:36:25;;;;;;;32.47;16.27;;;2.50;99.90;;;;;;5096329;27;20191;-67
2022/03/11 06:38:51;;;;;;;32.05;16.63;;;2.50;99.90;;;;;;5112391;27;20048;-66
2022/03/11 06:41:17;;;;;;;34.00;16.90;;;2.60;99.90;;;;;;5113147;27;20047;-66
2022/03/11 06:43:43;;;;;;;37.05;17.13;;;2.60;99.90;;;;;;5113281;27;20050;-67
2022/03/11 06:46:08;;;;;;;37.83;17.80;;;2.70;99.90;;;;;;5111282;27;20381;-65
2022/03/11 06:48:35;;;;;;;36.17;17.73;;;2.70;99.90;;;;;;5105644;27;20047;-67
2022/03/11 06:51:04;;;;;;;34.72;17.27;;;2.70;99.90;;;;;;5111619;27;20043;-67
2022/03/11 06:53:31;;;;;;;35.50;17.75;;;2.80;99.90;;;;;;5112032;27;20039;-66
2022/03/11 06:55:56;;;;;;;31.13;16.63;;;2.80;99.90;;;;;;5093827;27;20470;-65
2022/03/11 06:58:22;;;;;;;33.45;17.08;;;2.90;99.90;;;;;;5112214;27;20576;-66
2022/03/11 07:00:47;;;;;;;35.78;17.58;;;2.90;99.90;;;;;;5099084;28;20470;-67
2022/03/11 07:03:13;;;;;;;39.75;18.77;;;3.00;99.90;;;;;;5110794;27;20159;-66
2022/03/11 07:05:38;;;;;;;36.88;17.52;;;3.00;99.90;;;;;;5111889;27;20027;-66
2022/03/11 07:08:04;;;;;;;34.30;17.35;;;3.10;99.90;;;;;;5102933;27;20615;-66
2022/03/11 07:10:30;;;;;;;35.70;18.00;;;3.10;99.90;;;;;;5111381;27;20077;-67
2022/03/11 07:12:58;;;;;;;35.55;17.50;;;3.20;99.90;;;;;;5112066;28;20043;-66
2022/03/11 07:15:24;;;;;;;34.10;17.00;;;3.30;99.90;;;;;;5110518;28;20046;-67
2022/03/11 07:17:49;;;;;;;34.47;17.23;;;3.30;99.90;;;;;;5111712;28;20681;-68
2022/03/11 07:20:15;;;;;;;31.67;16.67;;;3.40;99.90;;;;;;5116172;27;20035;-70
2022/03/11 07:22:43;;;;;;;32.85;17.20;;;3.50;99.90;;;;;;5101312;28;20381;-69
2022/03/11 07:25:09;;;;;;;37.40;18.17;;;3.50;99.90;;;;;;5111133;28;20123;-69
2022/03/11 07:27:34;;;;;;;32.05;17.40;;;3.60;99.90;;;;;;5110419;27;20130;-69
2022/03/11 07:30:00;;;;;;;34.78;16.77;;;3.70;99.90;;;;;;5109905;28;20070;-69
2022/03/11 07:32:25;;;;;;;34.40;17.83;;;3.70;99.90;;;;;;5111903;28;20130;-69
2022/03/11 07:34:51;;;;;;;37.92;18.05;;;3.80;99.90;;;;;;5108190;28;20037;-70
2022/03/11 07:37:16;;;;;;;31.20;16.38;;;3.80;99.90;;;;;;5104810;28;20031;-71
2022/03/11 07:39:42;;;;;;;33.72;17.52;;;3.90;99.90;;;;;;5111595;28;20055;-70
2022/03/11 07:42:08;;;;;;;35.30;17.77;;;4.00;99.90;;;;;;5112296;28;20077;-70
2022/03/11 07:44:34;;;;;;;38.38;17.75;;;4.00;99.90;;;;;;5110878;27;20035;-70
2022/03/11 07:47:00;;;;;;;33.75;17.70;;;4.10;99.90;;;;;;5101930;28;20039;-69
2022/03/11 07:49:28;;;;;;;32.72;17.25;;;4.20;99.90;;;;;;5093484;28;20497;-69
2022/03/11 07:51:54;;;;;;;34.05;17.50;;;4.30;99.90;;;;;;5110027;28;20056;-68
2022/03/11 07:54:19;;;;;;;35.38;17.00;;;4.30;99.90;;;;;;5110907;28;20046;-69
2022/03/11 07:56:45;;;;;;;34.83;17.60;;;4.40;99.90;;;;;;5106215;28;20495;-70
2022/03/11 07:59:11;;;;;;;36.35;18.52;;;4.50;99.90;;;;;;5105857;28;20096;-70
2022/03/11 08:01:36;;;;;;;34.47;17.35;;;4.60;99.90;;;;;;5092868;27;20054;-70
2022/03/11 08:04:04;;;;;;;33.78;17.65;;;4.60;99.90;;;;;;5126753;27;20039;-69
2022/03/11 08:06:30;;;;;;;32.72;17.25;;;4.70;99.90;;;;;;5112757;27;20035;-68
2022/03/11 08:08:56;;;;;;;37.45;17.50;;;4.80;99.90;;;;;;5113351;27;20306;-70
2022/03/11 08:11:21;;;;;;;32.72;17.33;;;4.90;99.90;;;;;;5113644;27;20035;-70
2022/03/11 08:13:47;;;;;;;38.60;18.73;;;4.90;99.90;;;;;;5114948;27;20047;-71
2022/03/11 08:16:13;;;;;;;32.40;17.17;;;5.00;99.90;;;;;;5108036;27;20397;-69
2022/03/11 08:18:38;;;;;;;35.30;18.13;;;5.10;99.90;;;;;;5106016;27;20494;-69
2022/03/11 08:21:04;;;;;;;35.17;18.38;;;5.20;99.90;;;;;;5113721;27;20023;-70
2022/03/11 08:23:30;;;;;;;31.40;17.50;;;5.20;99.90;;;;;;5112464;27;20489;-70
2022/03/11 08:25:56;;;;;;;35.88;18.02;;;5.30;99.90;;;;;;5113478;27;20039;-71
2022/03/11 08:28:23;;;;;;;34.38;17.75;;;5.40;99.90;;;;;;5115346;27;20043;-69
2022/03/11 08:30:51;;;;;;;35.15;17.05;;;5.50;99.90;;;;;;5109055;27;20047;-70
2022/03/11 08:33:20;;;;;;;34.10;17.77;;;5.60;99.90;;;;;;5114989;27;20035;-70
2022/03/11 08:35:50;;;;;;;34.13;17.67;;;5.60;99.90;;;;;;5098081;27;20129;-70
2022/03/11 08:38:16;;;;;;;37.25;17.50;;;5.70;99.90;;;;;;5102774;27;20131;-69
2022/03/11 08:40:42;;;;;;;37.30;18.23;;;5.80;99.90;;;;;;5113635;27;20125;-69
2022/03/11 08:43:09;;;;;;;31.20;17.30;;;5.80;99.90;;;;;;5115402;27;20674;-71
2022/03/11 08:45:35;;;;;;;32.67;18.08;;;5.90;99.90;;;;;;5112537;27;20041;-69
2022/03/11 08:48:00;;;;;;;33.92;17.45;;;6.00;99.90;;;;;;5115374;27;20145;-70
2022/03/11 08:50:26;;;;;;;32.28;17.75;;;6.10;99.90;;;;;;5113585;27;20031;-70
2022/03/11 08:52:53;;;;;;;35.00;17.92;;;6.10;99.90;;;;;;5114130;27;20043;-70
2022/03/11 08:55:18;;;;;;;35.15;18.75;;;6.20;99.90;;;;;;5110220;27;20367;-69
2022/03/11 08:57:50;;;;;;;38.33;18.25;;;6.30;99.90;;;;;;5109151;27;20073;-71
2022/03/11 09:00:17;;;;;;;36.22;17.60;;;6.40;99.90;;;;;;5112559;27;20034;-70
2022/03/11 09:02:46;;;;;;;35.67;18.45;;;6.50;99.90;;;;;;5097325;27;20051;-69
2022/03/11 09:05:13;;;;;;;33.40;18.17;;;6.50;99.90;;;;;;5114505;27;20031;-70
2022/03/11 09:07:39;;;;;;;33.17;17.83;;;6.60;99.90;;;;;;5100668;27;20104;-70
2022/03/11 09:10:09;;;;;;;34.85;18.23;;;6.70;99.90;;;;;;5112760;27;20039;-70
2022/03/11 09:12:35;;;;;;;34.05;17.42;;;6.80;99.90;;;;;;5111600;27;20393;-69
2022/03/11 09:15:01;;;;;;;34.47;18.45;;;6.90;99.90;;;;;;5113669;27;20130;-70
2022/03/11 09:17:27;;;;;;;36.05;18.40;;;6.90;99.90;;;;;;5108844;27;20154;-69
2022/03/11 09:19:54;;;;;;;33.97;18.42;;;7.00;99.90;;;;;;5107076;27;20039;-70
2022/03/11 09:22:20;;;;;;;36.92;18.23;;;7.10;99.90;;;;;;5113151;27;20062;-70
2022/03/11 09:24:46;;;;;;;36.38;18.50;;;7.20;99.90;;;;;;5104836;27;20047;-71
2022/03/11 09:27:12;;;;;;;33.55;18.50;;;7.30;99.90;;;;;;5107740;27;20066;-71
2022/03/11 09:29:39;;;;;;;35.53;18.40;;;7.40;99.90;;;;;;5107513;27;20171;-70
2022/03/11 09:32:06;;;;;;;33.58;18.65;;;7.50;99.90;;;;;;5108084;27;20379;-67
2022/03/11 09:34:33;;;;;;;40.33;18.80;;;7.60;99.90;;;;;;5116408;27;20035;-66
2022/03/11 09:36:58;;;;;;;34.08;17.77;;;7.70;99.90;;;;;;5112932;27;20534;-69
2022/03/11 09:39:24;;;;;;;33.78;18.35;;;7.70;99.90;;;;;;5094155;28;20089;-70
2022/03/11 09:41:51;;;;;;;37.40;19.05;;;7.80;99.90;;;;;;5078282;27;20090;-70
2022/03/11 09:44:18;;;;;;;32.97;17.23;;;7.90;99.90;;;;;;5095697;27;20075;-70
2022/03/11 09:46:44;;;;;;;33.03;17.23;;;8.00;99.90;;;;;;5095297;27;20118;-69
2022/03/11 09:49:15;;;;;;;33.85;17.67;;;8.10;99.90;;;;;;5112847;27;20043;-69
2022/03/11 09:51:42;;;;;;;37.97;18.05;;;8.30;99.90;;;;;;5110939;27;20051;-69
2022/03/11 09:54:09;;;;;;;34.20;17.50;;;8.40;99.90;;;;;;5111748;27;20039;-68
2022/03/11 09:56:36;;;;;;;33.95;18.65;;;8.40;99.90;;;;;;5101569;27;20041;-66
2022/03/11 09:59:01;;;;;;;30.33;17.75;;;8.60;99.90;;;;;;5111088;27;20490;-69
2022/03/11 10:01:27;;;;;;;38.30;18.48;;;8.70;99.90;;;;;;5114005;27;20043;-69
2022/03/11 10:03:53;;;;;;;35.67;18.50;;;8.70;99.90;;;;;;5111220;27;20118;-69
2022/03/11 10:06:54;;;;;;;35.25;18.15;;;8.80;99.90;;;;;;5109471;27;20035;-69
2022/03/11 10:09:20;;;;;;;33.22;17.95;;;9.00;99.10;;;;;;5095242;27;20118;-69
2022/03/11 10:11:49;;;;;;;33.67;18.00;;;9.00;99.90;;;;;;5092987;27;20192;-69
2022/03/11 10:14:15;;;;;;;35.55;18.83;;;9.10;99.90;;;;;;5111558;27;20034;-69
2022/03/11 10:16:41;;;;;;;33.22;18.40;;;9.20;99.70;;;;;;5110824;27;20374;-69
2022/03/11 10:19:09;;;;;;;31.20;17.25;;;9.30;97.40;;;;;;5110982;27;20513;-69
2022/03/11 10:21:40;;;;;;;38.75;19.13;;;9.30;98.50;;;;;;5111558;27;20054;-64
2022/03/11 10:24:11;;;;;;;31.92;18.27;;;9.40;96.40;;;;;;5109980;27;20039;-69
2022/03/11 10:26:41;;;;;;;38.88;18.35;;;9.50;94.50;;;;;;5109133;27;20054;-64
2022/03/11 10:29:10;;;;;;;37.20;19.23;;;9.60;94.60;;;;;;5112221;27;20054;-65
2022/03/11 10:31:42;;;;;;;36.42;19.13;;;9.70;88.10;;;;;;5129923;27;20027;-64
2022/03/11 10:34:24;;;;;;;35.42;18.83;;;9.80;94.80;;;;;;5095553;27;20226;-65
2022/03/11 10:37:02;;;;;;;35.70;19.30;;;9.80;84.80;;;;;;5110407;27;20057;-64
2022/03/11 10:39:38;;;;;;;37.05;18.48;;;9.90;79.40;;;;;;5096110;27;20077;-65
2022/03/11 10:42:15;;;;;;;36.95;19.48;;;9.90;87.10;;;;;;5108863;27;20031;-65
2022/03/11 10:45:00;;;;;;;37.83;19.98;;;10.00;84.20;;;;;;5111531;27;20546;-66
2022/03/11 10:47:31;;;;;;;36.08;19.58;;;10.10;73.90;;;;;;5102589;27;20389;-68
2022/03/11 10:49:58;;;;;;;35.60;19.55;;;10.10;82.40;;;;;;5110618;27;20073;-67
2022/03/11 10:52:34;;;;;;;39.20;19.67;;;10.20;87.20;;;;;;5111750;27;20509;-66
2022/03/11 10:55:01;;;;;;;40.90;19.77;;;10.30;84.60;;;;;;5113124;27;20047;-67
2022/03/11 10:57:35;;;;;;;37.63;19.45;;;10.40;86.90;;;;;;5110882;27;20043;-67
2022/03/11 11:00:20;;;;;;;39.67;20.48;;;10.50;84.10;;;;;;5110202;27;20386;-66
2022/03/11 11:02:49;;;;;;;37.58;19.58;;;10.60;84.20;;;;;;5092416;28;20047;-68
2022/03/11 11:05:15;;;;;;;41.90;20.40;;;10.70;85.40;;;;;;5074857;28;20036;-68
2022/03/11 11:07:41;;;;;;;39.42;21.38;;;10.80;84.70;;;;;;5098396;27;20387;-68
2022/03/11 11:10:12;;;;;;;36.58;20.38;;;10.90;80.70;;;;;;5091189;28;20448;-67
2022/03/11 11:12:39;;;;;;;38.42;20.73;;;10.90;77.90;;;;;;5105179;27;20512;-68
2022/03/11 11:15:05;;;;;;;39.50;20.90;;;11.00;72.60;;;;;;5109493;27;20130;-69
2022/03/11 11:17:32;;;;;;;38.08;19.95;;;11.00;76.80;;;;;;5091620;28;20075;-68
2022/03/11 11:20:00;;;;;;;37.50;20.50;;;11.10;67.30;;;;;;5102899;28;20050;-67
2022/03/11 11:22:26;;;;;;;40.10;21.45;;;11.10;74.80;;;;;;5112437;28;20452;-68
2022/03/11 11:24:54;;;;;;;38.03;20.63;;;11.20;79.10;;;;;;5111733;28;20107;-69
2022/03/11 11:27:21;;;;;;;43.67;21.58;;;11.20;75.50;;;;;;5111973;28;20087;-67
2022/03/11 11:29:50;;;;;;;40.17;21.75;;;11.30;76.80;;;;;;5112133;28;20397;-67
2022/03/11 11:32:19;;;;;;;44.90;22.63;;;11.40;76.50;;;;;;5112076;28;20039;-69
2022/03/11 11:34:45;;;;;;;39.35;20.70;;;11.50;72.40;;;;;;5112528;28;20054;-68
2022/03/11 11:37:39;;;;;;;42.78;21.90;;;11.50;74.90;;;;;;5111662;27;20031;-67
2022/03/11 11:40:32;;;;;;;43.55;20.95;;;11.60;69.70;;;;;;5115422;27;20073;-68
2022/03/11 11:43:26;;;;;;;;;;;11.60;75.60;;;;;;5117101;27;20054;-67
2022/03/11 11:46:11;;;;;;;42.97;21.95;;;11.70;64.30;;;;;;5116178;27;20139;-68
2022/03/11 11:48:42;;;;;;;38.55;21.13;;;11.70;69.80;;;;;;5115819;27;20054;-67
2022/03/11 11:51:28;;;;;;;40.70;21.33;;;11.80;68.70;;;;;;5115183;27;20065;-67
2022/03/11 11:53:57;;;;;;;42.92;21.95;;;11.80;69.50;;;;;;5101547;27;20288;-67
2022/03/11 11:56:29;;;;;;;42.72;21.60;;;11.90;72.20;;;;;;5116098;27;20055;-67
2022/03/11 11:58:56;;;;;;;42.90;22.52;;;12.00;68.10;;;;;;5115581;27;20405;-68
2022/03/11 12:01:45;;;;;;;45.17;22.70;;;12.00;67.70;;;;;;5115560;27;20042;-67
2022/03/11 12:04:37;;;;;;;43.45;22.10;;;12.10;67.30;;;;;;5116485;27;20122;-68
2022/03/11 12:07:09;;;;;;;42.67;21.25;;;12.20;67.70;;;;;;5095406;28;20048;-68
2022/03/11 12:09:38;;;;;;;46.00;22.58;;;12.30;65.70;;;;;;5095040;28;20043;-68
2022/03/11 12:12:20;;;;;;;41.92;21.77;;;12.30;65.20;;;;;;5093885;28;20079;-68
2022/03/11 12:15:08;;;;;;;40.25;22.08;;;12.30;66.30;;;;;;5095602;28;20162;-68
2022/03/11 12:17:46;;;;;;;44.78;22.65;;;12.40;61.70;;;;;;5096640;27;20047;-68
2022/03/11 12:20:34;;;;;;;50.25;23.88;;;12.40;63.40;;;;;;5113312;27;20481;-68
2022/03/11 12:23:09;;;;;;;47.03;23.08;;;12.40;63.00;;;;;;5115888;27;20424;-68
2022/03/11 12:25:58;;;;;;;42.53;22.52;;;12.50;63.00;;;;;;5114607;27;20039;-69
2022/03/11 12:28:27;;;;;;;45.13;23.70;;;12.50;62.90;;;;;;5112516;27;20385;-67
2022/03/11 12:31:21;;;;;;;45.50;22.65;;;12.50;63.50;;;;;;5115070;27;20409;-68
2022/03/11 12:33:48;;;;;;;47.60;21.73;;;12.50;58.40;;;;;;5110767;27;20130;-68
2022/03/11 12:36:15;;;;;;;46.03;22.58;;;12.50;59.30;;;;;;5111776;27;20555;-69
2022/03/11 12:38:42;;;;;;;42.33;22.50;;;12.50;59.00;;;;;;5094210;28;20040;-68